To NAV CANADA Home Page Login to a new session Search on AWWS site Disclaimer Vers la page française équivalente Tips FAQ What's new on the site To the Forecasts and Observations / NOTAM section To "File a Flight Plan" website Publications and other links Update of the User's profile FIC Telephone Numbers My Weather Data Folder Route Weather Data Regional Weather Data Local Weather Data To the Forecasts and Observations / NOTAM section
Request Generated 07/30/2021 at 07:31:01 UTC . Weather information available at that time is displayed.

METAR/TAF

TORONTO/OSHAWA EXECUTIVE AIRPORT/ON    (show WxCam)

METAR CYOO 300700Z AUTO 35012KT 9SM CLR 17/16 A2982 RMK SLP099 DENSITY ALT 1000FT=
METAR CYOO 300600Z AUTO 35015G22KT 9SM BKN096 18/16 A2980 RMK SLP093 DENSITY ALT 1100FT=
SPECI CYOO 300546Z AUTO 34015G20KT 9SM OVC096 19/16 A2980 RMK SLP093 DENSITY ALT 1200FT=
METAR CYOO 300500Z AUTO 33005KT 9SM BKN100 BKN120 OVC150 19/17 A2980 RMK SLP093 DENSITY ALT 1200FT=

TAF CYOO 300138Z 3002/3014 29007KT P6SM SCT020 BKN030 TEMPO 3002/3014
BKN020
BECMG 3011/3013 35010G20KT
RMK FCST BASED ON AUTO OBS. NXT FCST BY 300800Z=
Your time UTC time
Weather data provided by Environment Canada and NAV CANADA